createdAt,value
2023-08-13T00:01:32.494Z,1.90
2023-08-13T00:03:59.306Z,1.90
2023-08-13T00:06:26.260Z,1.60
2023-08-13T00:08:52.778Z,1.98
2023-08-13T00:11:19.366Z,1.85
2023-08-13T00:13:47.041Z,2.30
2023-08-13T00:16:37.815Z,2.08
2023-08-13T00:19:07.430Z,2.45
2023-08-13T00:21:33.972Z,1.95
2023-08-13T00:24:00.458Z,2.03
2023-08-13T00:26:26.972Z,2.15
2023-08-13T00:28:53.476Z,1.95
2023-08-13T00:31:23.451Z,1.90
2023-08-13T00:33:53.496Z,2.30
2023-08-13T00:36:20.042Z,2.03
2023-08-13T00:38:46.525Z,2.15
2023-08-13T00:41:13.211Z,2.10
2023-08-13T00:43:40.600Z,2.50
2023-08-13T00:46:11.495Z,2.13
2023-08-13T00:48:40.676Z,2.30
2023-08-13T00:51:09.675Z,2.47
2023-08-13T00:53:47.668Z,2.42
2023-08-13T00:56:17.634Z,2.80
2023-08-13T00:58:45.025Z,2.75
2023-08-13T01:01:15.149Z,2.60
2023-08-13T01:03:44.876Z,2.78
2023-08-13T01:06:14.337Z,2.78
2023-08-13T01:09:04.230Z,2.90
2023-08-13T01:11:47.073Z,3.30
2023-08-13T01:14:28.092Z,3.00
2023-08-13T01:17:00.264Z,3.55
2023-08-13T01:19:26.807Z,3.17
2023-08-13T01:21:53.380Z,3.63
2023-08-13T01:24:19.919Z,3.45
2023-08-13T01:27:02.692Z,3.58
2023-08-13T01:29:42.602Z,3.20
2023-08-13T01:32:16.377Z,3.30
2023-08-13T01:34:44.454Z,3.60
2023-08-13T01:37:12.131Z,3.10
2023-08-13T01:39:38.724Z,3.33
2023-08-13T01:42:07.469Z,3.08
2023-08-13T01:44:33.952Z,3.25
2023-08-13T01:47:00.482Z,3.08
2023-08-13T01:49:27.171Z,3.55
2023-08-13T01:51:53.671Z,3.13
2023-08-13T01:54:20.210Z,3.45
2023-08-13T01:56:46.721Z,3.22
2023-08-13T01:59:13.255Z,3.30
2023-08-13T02:01:39.798Z,3.10
2023-08-13T02:04:06.622Z,3.30
2023-08-13T02:06:34.409Z,3.20
2023-08-13T02:09:01.385Z,3.50
2023-08-13T02:11:27.997Z,3.58
2023-08-13T02:13:54.506Z,3.08
2023-08-13T02:16:21.006Z,3.25
2023-08-13T02:18:47.639Z,3.60
2023-08-13T02:21:14.351Z,3.42
2023-08-13T02:23:40.974Z,3.50
2023-08-13T02:26:07.447Z,3.20
2023-08-13T02:28:33.975Z,3.63
2023-08-13T02:31:00.515Z,3.83
2023-08-13T02:33:27.143Z,3.50
2023-08-13T02:35:53.673Z,3.55
2023-08-13T02:38:20.206Z,3.50
2023-08-13T02:40:46.789Z,3.28
2023-08-13T02:43:13.315Z,3.30
2023-08-13T02:45:39.801Z,3.80
2023-08-13T02:48:06.652Z,3.92
2023-08-13T02:50:33.198Z,3.25
2023-08-13T02:52:59.728Z,3.70
2023-08-13T02:55:26.261Z,4.85
2023-08-13T02:58:08.999Z,4.35
2023-08-13T03:00:36.441Z,4.82
2023-08-13T03:03:03.136Z,4.20
2023-08-13T03:05:31.697Z,4.65
2023-08-13T03:07:58.264Z,4.90
2023-08-13T03:10:24.950Z,4.15
2023-08-13T03:12:51.461Z,4.40
2023-08-13T03:15:17.974Z,5.13
2023-08-13T03:17:44.509Z,5.20
2023-08-13T03:20:11.228Z,5.35
2023-08-13T03:22:38.403Z,4.28
2023-08-13T03:25:05.535Z,4.00
2023-08-13T03:27:32.041Z,4.45
2023-08-13T03:29:58.545Z,4.25
2023-08-13T03:32:25.088Z,4.80
2023-08-13T03:34:51.600Z,4.47
2023-08-13T03:37:21.696Z,4.57
2023-08-13T03:39:48.182Z,5.43
2023-08-13T03:42:14.867Z,4.70
2023-08-13T03:44:42.595Z,4.88
2023-08-13T03:47:09.178Z,5.13
2023-08-13T03:49:36.310Z,4.70
2023-08-13T03:52:02.998Z,4.43
2023-08-13T03:54:29.790Z,4.40
2023-08-13T03:56:56.347Z,4.78
2023-08-13T03:59:25.874Z,4.32
2023-08-13T04:01:52.623Z,4.63
2023-08-13T04:04:19.509Z,5.38
2023-08-13T04:06:46.948Z,5.07
2023-08-13T04:09:13.435Z,4.65
2023-08-13T04:11:40.002Z,4.80
2023-08-13T04:14:06.482Z,5.40
2023-08-13T04:16:33.015Z,5.13
2023-08-13T04:18:59.531Z,4.90
2023-08-13T04:21:28.833Z,5.57
2023-08-13T04:23:59.815Z,5.20
2023-08-13T04:26:26.343Z,5.07
2023-08-13T04:28:53.177Z,5.03
2023-08-13T04:31:21.377Z,4.72
2023-08-13T04:33:49.444Z,5.03
2023-08-13T04:36:16.254Z,5.22
2023-08-13T04:38:42.928Z,5.53
2023-08-13T04:41:09.623Z,5.55
2023-08-13T04:43:36.180Z,5.57
2023-08-13T04:46:05.751Z,5.40
2023-08-13T04:48:50.383Z,5.50
2023-08-13T04:51:17.574Z,5.28
2023-08-13T04:53:44.532Z,5.90
2023-08-13T04:56:11.289Z,5.10
2023-08-13T04:58:38.183Z,5.45
2023-08-13T05:01:05.295Z,5.25
2023-08-13T05:03:32.881Z,4.95
2023-08-13T05:05:59.710Z,4.88
2023-08-13T05:08:26.288Z,4.95
2023-08-13T05:10:52.956Z,5.05
2023-08-13T05:13:19.522Z,4.88
2023-08-13T05:15:46.252Z,5.25
2023-08-13T05:18:12.838Z,5.53
2023-08-13T05:20:39.357Z,5.60
2023-08-13T05:23:05.957Z,5.20
2023-08-13T05:25:37.647Z,5.55
2023-08-13T05:28:04.394Z,6.05
2023-08-13T05:30:30.964Z,5.55
2023-08-13T05:32:57.692Z,5.10
2023-08-13T05:35:24.208Z,4.60
2023-08-13T05:37:50.710Z,5.25
2023-08-13T05:40:17.309Z,5.32
2023-08-13T05:42:43.774Z,5.07
2023-08-13T05:45:11.543Z,5.10
2023-08-13T05:47:38.135Z,5.03
2023-08-13T05:50:05.555Z,5.13
2023-08-13T05:52:32.087Z,5.25
2023-08-13T05:54:58.592Z,4.80
2023-08-13T05:57:25.143Z,4.90
2023-08-13T05:59:51.746Z,4.75
2023-08-13T06:02:18.234Z,4.80
2023-08-13T06:04:44.820Z,5.13
2023-08-13T06:07:11.321Z,4.65
2023-08-13T06:09:37.865Z,4.57
2023-08-13T06:12:04.659Z,4.53
2023-08-13T06:14:31.220Z,5.10
2023-08-13T06:17:08.310Z,4.50
2023-08-13T06:19:39.203Z,3.40
2023-08-13T06:22:05.663Z,3.10
2023-08-13T06:24:32.869Z,3.45
2023-08-13T06:26:59.389Z,2.33
2023-08-13T06:29:25.902Z,2.90
2023-08-13T06:31:52.533Z,2.83
2023-08-13T06:34:19.153Z,3.10
2023-08-13T06:36:45.682Z,2.83
2023-08-13T06:39:12.203Z,2.70
2023-08-13T06:41:39.025Z,2.45
2023-08-13T06:44:06.918Z,2.63
2023-08-13T06:46:33.562Z,2.20
2023-08-13T06:49:00.210Z,2.45
2023-08-13T06:51:26.769Z,2.28
2023-08-13T06:53:53.305Z,2.55
2023-08-13T06:56:19.819Z,2.63
2023-08-13T06:58:46.299Z,2.65
2023-08-13T07:01:12.803Z,2.50
2023-08-13T07:03:39.336Z,2.35
2023-08-13T07:06:05.872Z,2.55
2023-08-13T07:08:36.022Z,2.67
2023-08-13T07:11:02.610Z,2.70
2023-08-13T07:13:29.314Z,2.70
2023-08-13T07:15:55.911Z,2.35
2023-08-13T07:18:22.577Z,2.47
2023-08-13T07:20:49.190Z,2.40
2023-08-13T07:23:15.650Z,2.50
2023-08-13T07:25:42.264Z,2.58
2023-08-13T07:28:08.776Z,2.53
2023-08-13T07:30:35.867Z,2.40
2023-08-13T07:33:02.482Z,2.90
2023-08-13T07:35:29.356Z,2.50
2023-08-13T07:37:55.922Z,2.35
2023-08-13T07:40:22.595Z,2.70
2023-08-13T07:42:49.050Z,2.45
2023-08-13T07:45:15.776Z,2.28
2023-08-13T07:47:42.469Z,2.20
2023-08-13T07:50:09.737Z,2.30
2023-08-13T07:52:36.710Z,2.72
2023-08-13T07:55:04.528Z,2.70
2023-08-13T07:57:32.182Z,2.42
2023-08-13T07:59:59.213Z,2.60
2023-08-13T08:02:25.809Z,2.40
2023-08-13T08:04:52.325Z,2.13
2023-08-13T08:07:19.992Z,2.22
2023-08-13T08:09:46.725Z,2.42
2023-08-13T08:12:13.677Z,2.40
2023-08-13T08:14:40.428Z,2.45
2023-08-13T08:17:08.324Z,2.25
2023-08-13T08:19:34.936Z,2.72
2023-08-13T08:22:01.514Z,2.28
2023-08-13T08:24:28.039Z,2.25
2023-08-13T08:26:54.549Z,2.30
2023-08-13T08:29:21.198Z,2.15
2023-08-13T08:31:47.751Z,2.17
2023-08-13T08:34:14.258Z,2.20
2023-08-13T08:36:41.559Z,2.47
2023-08-13T08:39:08.162Z,1.98
2023-08-13T08:41:37.684Z,2.40
2023-08-13T08:44:07.549Z,2.05
2023-08-13T08:46:34.891Z,2.13
2023-08-13T08:49:01.453Z,2.17
2023-08-13T08:51:28.056Z,2.50
2023-08-13T08:53:54.769Z,2.47
2023-08-13T08:56:25.141Z,2.10
2023-08-13T08:58:51.653Z,2.15
2023-08-13T09:01:18.190Z,2.25
2023-08-13T09:03:44.697Z,2.08
2023-08-13T09:06:21.583Z,2.08
2023-08-13T09:08:50.167Z,2.13
2023-08-13T09:11:19.425Z,2.03
2023-08-13T09:13:50.721Z,2.20
2023-08-13T09:16:17.944Z,2.38
2023-08-13T09:18:44.614Z,2.13
2023-08-13T09:21:11.127Z,1.92
2023-08-13T09:23:40.950Z,1.80
2023-08-13T09:26:08.368Z,2.20
2023-08-13T09:28:35.422Z,2.22
2023-08-13T09:31:02.156Z,2.00
2023-08-13T09:33:28.761Z,2.17
2023-08-13T09:35:55.252Z,2.13
2023-08-13T09:38:21.861Z,2.13
2023-08-13T09:40:49.172Z,2.42
2023-08-13T09:43:20.604Z,2.03
2023-08-13T09:45:48.771Z,2.50
2023-08-13T09:48:19.877Z,2.22
2023-08-13T09:50:49.541Z,2.30
2023-08-13T09:53:16.824Z,2.35
2023-08-13T09:55:53.008Z,2.22
2023-08-13T09:58:20.505Z,1.90
2023-08-13T10:00:48.522Z,2.17
2023-08-13T10:03:18.451Z,1.92
2023-08-13T10:05:46.077Z,1.90
2023-08-13T10:08:19.443Z,1.75
2023-08-13T10:10:46.435Z,1.67
2023-08-13T10:13:13.238Z,1.88
2023-08-13T10:15:40.856Z,2.00
2023-08-13T10:18:07.699Z,2.20
2023-08-13T10:20:34.378Z,1.85
2023-08-13T10:23:02.663Z,1.83
2023-08-13T10:25:36.670Z,2.20
2023-08-13T10:28:21.226Z,1.90
2023-08-13T10:30:47.927Z,1.90
2023-08-13T10:33:15.572Z,1.63
2023-08-13T10:35:43.292Z,2.00
2023-08-13T10:38:12.374Z,2.00
2023-08-13T10:40:58.176Z,1.88
2023-08-13T10:43:24.768Z,2.03
2023-08-13T10:45:53.075Z,1.98
2023-08-13T10:48:27.882Z,1.67
2023-08-13T10:50:57.700Z,2.00
2023-08-13T10:53:27.203Z,2.20
2023-08-13T10:55:56.084Z,2.20
2023-08-13T10:58:25.151Z,1.98
2023-08-13T11:00:52.321Z,1.70
2023-08-13T11:03:25.227Z,1.70
2023-08-13T11:05:53.239Z,1.40
2023-08-13T11:08:30.724Z,1.55
2023-08-13T11:11:04.590Z,1.90
2023-08-13T11:13:31.102Z,1.95
2023-08-13T11:15:57.614Z,1.90
2023-08-13T11:18:24.141Z,1.98
2023-08-13T11:20:51.329Z,1.67
2023-08-13T11:23:19.105Z,1.55
2023-08-13T11:25:50.402Z,1.98
2023-08-13T11:28:20.684Z,1.85
2023-08-13T11:30:47.767Z,1.83
2023-08-13T11:33:15.934Z,1.58
2023-08-13T11:35:42.614Z,1.60
2023-08-13T11:38:09.722Z,1.50
2023-08-13T11:40:37.333Z,1.63
2023-08-13T11:43:07.089Z,1.40
2023-08-13T11:45:33.988Z,1.35
2023-08-13T11:48:21.669Z,1.40
2023-08-13T11:51:19.951Z,1.80
2023-08-13T11:53:49.044Z,1.50
2023-08-13T11:56:17.267Z,1.80
2023-08-13T11:58:44.927Z,1.60
2023-08-13T12:01:12.590Z,1.80
2023-08-13T12:03:44.341Z,1.95
2023-08-13T12:06:11.960Z,1.67
2023-08-13T12:08:39.034Z,1.95
2023-08-13T12:11:06.865Z,1.83
2023-08-13T12:13:41.348Z,1.90
2023-08-13T12:16:07.982Z,1.90
2023-08-13T12:18:34.541Z,1.80
2023-08-13T12:21:01.066Z,1.90
2023-08-13T12:23:27.587Z,1.88
2023-08-13T12:25:54.078Z,1.73
2023-08-13T12:28:20.734Z,1.88
2023-08-13T12:30:47.246Z,2.00
2023-08-13T12:33:13.856Z,2.00
2023-08-13T12:35:40.491Z,1.80
2023-08-13T12:38:06.966Z,1.88
2023-08-13T12:40:33.476Z,2.20
2023-08-13T12:42:59.977Z,1.73
2023-08-13T12:45:26.507Z,1.52
2023-08-13T12:47:53.036Z,1.85
2023-08-13T12:50:19.596Z,1.45
2023-08-13T12:52:46.100Z,1.90
2023-08-13T12:55:12.788Z,1.70
2023-08-13T12:57:39.393Z,1.92
2023-08-13T13:00:06.785Z,2.00
2023-08-13T13:02:33.440Z,1.60
2023-08-13T13:05:00.106Z,2.30
2023-08-13T13:07:29.539Z,1.63
2023-08-13T13:09:56.100Z,2.28
2023-08-13T13:12:23.694Z,1.90
2023-08-13T13:14:50.280Z,1.70
2023-08-13T13:17:16.909Z,1.60
2023-08-13T13:19:43.775Z,1.73
2023-08-13T13:22:14.235Z,1.63
2023-08-13T13:24:40.935Z,1.80
2023-08-13T13:27:07.456Z,2.05
2023-08-13T13:29:33.959Z,1.67
2023-08-13T13:32:01.400Z,1.70
2023-08-13T13:34:28.063Z,1.30
2023-08-13T13:36:55.436Z,1.52
2023-08-13T13:39:21.942Z,1.27
2023-08-13T13:41:51.974Z,1.48
2023-08-13T13:44:19.095Z,2.03
2023-08-13T13:46:45.617Z,1.67
2023-08-13T13:49:12.100Z,1.60
2023-08-13T13:51:38.605Z,1.42
2023-08-13T13:54:07.646Z,1.38
2023-08-13T13:56:34.310Z,1.60
2023-08-13T13:59:00.903Z,1.65
2023-08-13T14:01:27.440Z,1.48
2023-08-13T14:03:54.025Z,1.80
2023-08-13T14:06:20.775Z,1.58
2023-08-13T14:08:47.308Z,1.70
2023-08-13T14:11:13.894Z,1.60
2023-08-13T14:13:40.360Z,1.83
2023-08-13T14:16:06.993Z,1.65
2023-08-13T14:18:33.522Z,1.50
2023-08-13T14:21:00.062Z,1.63
2023-08-13T14:23:26.562Z,1.48
2023-08-13T14:25:54.240Z,1.80
2023-08-13T14:28:20.740Z,1.60
2023-08-13T14:30:47.257Z,1.73
2023-08-13T14:33:13.884Z,1.75
2023-08-13T14:35:40.492Z,1.63
2023-08-13T14:38:07.058Z,2.00
2023-08-13T14:40:33.568Z,1.88
2023-08-13T14:43:00.095Z,1.42
2023-08-13T14:45:26.623Z,1.63
2023-08-13T14:47:53.243Z,1.70
2023-08-13T14:50:20.726Z,1.73
2023-08-13T14:52:47.269Z,1.60
2023-08-13T14:55:16.591Z,1.40
2023-08-13T14:57:43.421Z,1.70
2023-08-13T15:00:10.176Z,1.55
2023-08-13T15:02:37.248Z,1.70
2023-08-13T15:05:04.264Z,1.60
2023-08-13T15:07:30.759Z,1.50
2023-08-13T15:09:57.397Z,1.63
2023-08-13T15:12:39.340Z,1.50
2023-08-13T15:15:08.397Z,1.90
2023-08-13T15:17:38.251Z,1.90
2023-08-13T15:20:08.864Z,1.85
2023-08-13T15:22:36.047Z,1.58
2023-08-13T15:25:04.079Z,1.92
2023-08-13T15:27:31.085Z,1.55
2023-08-13T15:29:57.735Z,2.25
2023-08-13T15:32:24.306Z,1.73
2023-08-13T15:34:50.802Z,1.88
2023-08-13T15:37:17.314Z,1.83
2023-08-13T15:39:46.235Z,2.05
2023-08-13T15:42:12.806Z,1.83
2023-08-13T15:44:39.768Z,1.85
2023-08-13T15:47:06.471Z,1.90
2023-08-13T15:49:33.038Z,2.00
2023-08-13T15:52:00.372Z,2.08
2023-08-13T15:54:26.936Z,1.77
2023-08-13T15:56:53.409Z,1.90
2023-08-13T15:59:19.922Z,2.40
2023-08-13T16:01:48.014Z,2.10
2023-08-13T16:04:14.960Z,2.10
2023-08-13T16:06:42.699Z,2.10
2023-08-13T16:09:09.262Z,2.15
2023-08-13T16:11:36.126Z,2.15
2023-08-13T16:14:02.648Z,2.03
2023-08-13T16:16:29.221Z,2.25
2023-08-13T16:18:55.827Z,2.30
2023-08-13T16:21:22.945Z,2.35
2023-08-13T16:23:57.537Z,2.30
2023-08-13T16:26:27.676Z,2.50
2023-08-13T16:28:54.182Z,1.92
2023-08-13T16:31:20.711Z,2.17
2023-08-13T16:33:47.358Z,2.08
2023-08-13T16:36:13.857Z,2.00
2023-08-13T16:38:40.411Z,2.00
2023-08-13T16:41:06.883Z,2.17
2023-08-13T16:43:33.479Z,2.20
2023-08-13T16:45:59.989Z,2.10
2023-08-13T16:48:26.583Z,2.10
2023-08-13T16:50:53.134Z,2.22
2023-08-13T16:53:19.707Z,2.00
2023-08-13T16:55:46.306Z,2.22
2023-08-13T16:58:12.968Z,2.30
2023-08-13T17:00:40.505Z,2.22
2023-08-13T17:03:07.058Z,2.22
2023-08-13T17:05:33.583Z,2.40
2023-08-13T17:08:00.053Z,2.40
2023-08-13T17:10:26.604Z,2.17
2023-08-13T17:12:53.132Z,2.63
2023-08-13T17:15:24.981Z,2.40
2023-08-13T17:17:56.282Z,2.60
2023-08-13T17:20:23.438Z,2.20
2023-08-13T17:22:50.445Z,2.55
2023-08-13T17:25:17.075Z,2.25
2023-08-13T17:27:43.646Z,2.20
2023-08-13T17:30:10.542Z,2.28
2023-08-13T17:32:37.072Z,2.47
2023-08-13T17:35:04.617Z,2.10
2023-08-13T17:37:32.962Z,2.25
2023-08-13T17:40:00.961Z,2.22
2023-08-13T17:42:27.482Z,2.25
2023-08-13T17:44:56.751Z,2.20
2023-08-13T17:47:23.395Z,2.20
2023-08-13T17:49:50.837Z,1.90
2023-08-13T17:52:17.373Z,1.90
2023-08-13T17:54:43.883Z,2.20
2023-08-13T17:57:10.405Z,2.30
2023-08-13T17:59:37.452Z,1.90
2023-08-13T18:02:04.063Z,2.13
2023-08-13T18:04:30.730Z,2.30
2023-08-13T18:07:00.654Z,2.17
2023-08-13T18:09:27.286Z,2.17
2023-08-13T18:11:53.860Z,1.95
2023-08-13T18:14:20.798Z,2.13
2023-08-13T18:16:47.338Z,2.00
2023-08-13T18:19:14.219Z,2.30
2023-08-13T18:21:43.634Z,2.20
2023-08-13T18:24:10.097Z,2.20
2023-08-13T18:26:36.682Z,2.25
2023-08-13T18:29:04.441Z,2.20
2023-08-13T18:31:31.110Z,2.50
2023-08-13T18:33:57.639Z,2.13
2023-08-13T18:36:24.219Z,2.50
2023-08-13T18:38:50.720Z,2.42
2023-08-13T18:41:17.253Z,2.35
2023-08-13T18:43:43.880Z,2.85
2023-08-13T18:46:11.418Z,2.17
2023-08-13T18:48:38.294Z,2.60
2023-08-13T18:51:04.909Z,2.38
2023-08-13T18:53:31.433Z,2.67
2023-08-13T18:55:58.220Z,2.53
2023-08-13T18:58:24.776Z,2.70
2023-08-13T19:00:51.525Z,2.72
2023-08-13T19:03:18.449Z,2.80
2023-08-13T19:05:46.016Z,2.60
2023-08-13T19:08:12.827Z,2.40
2023-08-13T19:10:46.242Z,2.80
2023-08-13T19:13:14.373Z,2.78
2023-08-13T19:15:41.410Z,2.67
2023-08-13T19:18:10.218Z,3.25
2023-08-13T19:20:36.876Z,2.90
2023-08-13T19:23:03.667Z,3.20
2023-08-13T19:25:30.618Z,3.05
2023-08-13T19:27:57.413Z,3.58
2023-08-13T19:30:24.006Z,3.65
2023-08-13T19:32:50.784Z,3.53
2023-08-13T19:35:17.573Z,3.60
2023-08-13T19:37:44.127Z,3.75
2023-08-13T19:40:12.098Z,4.20
2023-08-13T19:42:38.782Z,4.60
2023-08-13T19:45:05.801Z,4.95
2023-08-13T19:47:32.512Z,4.78
2023-08-13T19:49:59.116Z,4.15
2023-08-13T19:52:25.753Z,4.32
2023-08-13T19:54:52.333Z,4.30
2023-08-13T19:57:18.947Z,3.95
2023-08-13T19:59:45.455Z,3.90
2023-08-13T20:02:11.988Z,3.45
2023-08-13T20:04:38.557Z,3.42
2023-08-13T20:07:05.167Z,3.80
2023-08-13T20:09:31.811Z,3.10
2023-08-13T20:11:58.483Z,3.20
2023-08-13T20:14:24.975Z,3.20
2023-08-13T20:16:51.514Z,3.20
2023-08-13T20:19:18.903Z,3.35
2023-08-13T20:21:50.296Z,2.88
2023-08-13T20:24:18.374Z,3.22
2023-08-13T20:26:45.665Z,3.47
2023-08-13T20:29:15.326Z,3.17
2023-08-13T20:31:43.221Z,3.35
2023-08-13T20:34:09.940Z,3.50
2023-08-13T20:36:36.495Z,3.20
2023-08-13T20:39:03.106Z,3.55
2023-08-13T20:41:30.895Z,3.15
2023-08-13T20:43:57.472Z,3.03
2023-08-13T20:46:23.994Z,3.63
2023-08-13T20:48:50.537Z,3.45
2023-08-13T20:51:19.821Z,3.55
2023-08-13T20:53:46.333Z,3.08
2023-08-13T20:56:12.945Z,3.03
2023-08-13T20:58:43.008Z,3.17
2023-08-13T21:01:09.493Z,3.70
2023-08-13T21:03:36.074Z,3.05
2023-08-13T21:06:02.591Z,2.95
2023-08-13T21:08:29.081Z,3.78
2023-08-13T21:10:55.612Z,3.15
2023-08-13T21:13:22.150Z,2.88
2023-08-13T21:15:48.705Z,3.45
2023-08-13T21:18:15.306Z,3.40
2023-08-13T21:20:41.851Z,3.58
2023-08-13T21:23:08.407Z,2.72
2023-08-13T21:25:34.950Z,3.35
2023-08-13T21:28:01.561Z,3.08
2023-08-13T21:30:28.064Z,3.45
2023-08-13T21:32:55.986Z,3.10
2023-08-13T21:35:24.100Z,3.13
2023-08-13T21:37:50.673Z,3.00
2023-08-13T21:40:17.531Z,2.92
2023-08-13T21:42:44.152Z,3.05
2023-08-13T21:45:11.498Z,2.90
2023-08-13T21:47:39.111Z,3.13
2023-08-13T21:50:06.221Z,3.10
2023-08-13T21:52:32.727Z,3.10
2023-08-13T21:54:59.269Z,3.30
2023-08-13T21:57:25.763Z,2.90
2023-08-13T21:59:52.319Z,2.60
2023-08-13T22:02:19.100Z,2.70
2023-08-13T22:04:45.753Z,2.80
2023-08-13T22:07:12.419Z,3.22
2023-08-13T22:09:38.938Z,2.72
2023-08-13T22:12:09.041Z,3.00
2023-08-13T22:14:35.667Z,2.97
2023-08-13T22:17:02.187Z,2.90
2023-08-13T22:19:51.563Z,2.70
2023-08-13T22:22:19.838Z,2.72
2023-08-13T22:24:47.456Z,2.58
2023-08-13T22:27:14.139Z,2.60
2023-08-13T22:29:41.031Z,2.78
2023-08-13T22:32:07.832Z,2.72
2023-08-13T22:34:34.528Z,2.83
2023-08-13T22:37:01.079Z,2.53
2023-08-13T22:39:30.686Z,2.80
2023-08-13T22:41:58.156Z,2.75
2023-08-13T22:44:24.864Z,2.25
2023-08-13T22:46:53.871Z,2.80
2023-08-13T22:49:31.247Z,2.40
2023-08-13T22:51:58.037Z,2.65
2023-08-13T22:54:24.724Z,2.30
2023-08-13T22:56:51.261Z,2.67
2023-08-13T22:59:17.759Z,2.90
2023-08-13T23:01:49.785Z,2.80
2023-08-13T23:04:16.352Z,2.38
2023-08-13T23:06:42.918Z,2.50
2023-08-13T23:09:09.924Z,2.35
2023-08-13T23:11:36.555Z,2.83
2023-08-13T23:14:03.144Z,2.50
2023-08-13T23:16:32.115Z,2.60
2023-08-13T23:18:58.601Z,2.88
2023-08-13T23:21:31.568Z,2.80
2023-08-13T23:23:59.790Z,2.72
2023-08-13T23:26:26.477Z,2.55
2023-08-13T23:28:53.036Z,2.53
2023-08-13T23:31:19.679Z,2.53
2023-08-13T23:33:48.915Z,2.65
2023-08-13T23:36:17.016Z,2.63
2023-08-13T23:38:44.211Z,2.80
2023-08-13T23:41:10.835Z,2.60
2023-08-13T23:43:37.759Z,2.47
2023-08-13T23:46:06.920Z,3.05
2023-08-13T23:48:39.531Z,2.88
2023-08-13T23:51:07.018Z,2.70
2023-08-13T23:53:33.911Z,2.92
2023-08-13T23:56:02.725Z,2.83
2023-08-13T23:58:29.251Z,2.70
